Main page
METAR-TAF:

METAR-TAF

Airports :

Pembrey Airport

Pembrey, Wales

latitude: 51-43N, longitude: 004-22W, elevation: 3 m

Current weather observation

The report was made 51 minutes ago, at 01:50 UTC
Wind 36 kt from the West with gusts up to 47 kt
Temperature 7°C
Humidity 70%
Pressure 987 hPa
Visibility 10 km or more

METAR: EGOP 150150Z AUTO 26036G47KT 9999 // BKN070/// 07/02 Q0987

Time: 02:41 (02:41 UTC)


TAF: missing

Weather observations and forecasts of more than 4000 airports (METAR and TAF reports).

The available stations are represented by yellow and red dots on the map.

Hover mouse over dot to see the name of the station.

Then click to see weather observations and forecasts.

To change the map : click on the green buttons with a black cross to zoom in, on the green button with a dash to zoom out, or on the green arrows for adjacent maps.


METAR-TAF: